sensor_id;sensor_type;location;lat;lon;timestamp;P1;durP1;ratioP1;P2;durP2;ratioP2
37657;SDS011;23500;53.268;8.308;2022-09-23T00:00:29;5.75;;;5.20;;
37657;SDS011;23500;53.268;8.308;2022-09-23T00:02:55;6.07;;;5.57;;
37657;SDS011;23500;53.268;8.308;2022-09-23T00:05:20;5.80;;;5.30;;
37657;SDS011;23500;53.268;8.308;2022-09-23T00:07:46;6.25;;;5.65;;
37657;SDS011;23500;53.268;8.308;2022-09-23T00:10:13;5.93;;;5.43;;
37657;SDS011;23500;53.268;8.308;2022-09-23T00:12:38;6.00;;;5.50;;
37657;SDS011;23500;53.268;8.308;2022-09-23T00:15:04;5.80;;;5.20;;
37657;SDS011;23500;53.268;8.308;2022-09-23T00:17:30;6.15;;;5.65;;
37657;SDS011;23500;53.268;8.308;2022-09-23T00:19:56;6.15;;;5.57;;
37657;SDS011;23500;53.268;8.308;2022-09-23T00:22:22;5.80;;;5.32;;
37657;SDS011;23500;53.268;8.308;2022-09-23T00:24:48;5.93;;;5.43;;
37657;SDS011;23500;53.268;8.308;2022-09-23T00:27:14;5.93;;;5.40;;
37657;SDS011;23500;53.268;8.308;2022-09-23T00:29:40;5.95;;;5.45;;
37657;SDS011;23500;53.268;8.308;2022-09-23T00:32:05;5.53;;;5.03;;
37657;SDS011;23500;53.268;8.308;2022-09-23T00:34:31;5.68;;;5.18;;
37657;SDS011;23500;53.268;8.308;2022-09-23T00:36:57;5.60;;;5.15;;
37657;SDS011;23500;53.268;8.308;2022-09-23T00:39:23;6.05;;;5.55;;
37657;SDS011;23500;53.268;8.308;2022-09-23T00:41:50;5.55;;;5.13;;
37657;SDS011;23500;53.268;8.308;2022-09-23T00:50:05;5.90;;;5.40;;
37657;SDS011;23500;53.268;8.308;2022-09-23T00:52:37;5.70;;;5.20;;
37657;SDS011;23500;53.268;8.308;2022-09-23T00:55:15;5.28;;;4.88;;
37657;SDS011;23500;53.268;8.308;2022-09-23T00:57:49;5.90;;;5.40;;
37657;SDS011;23500;53.268;8.308;2022-09-23T01:00:18;5.88;;;5.32;;
37657;SDS011;23500;53.268;8.308;2022-09-23T01:02:45;5.57;;;5.10;;
37657;SDS011;23500;53.268;8.308;2022-09-23T01:05:11;5.22;;;4.82;;
37657;SDS011;23500;53.268;8.308;2022-09-23T01:07:38;5.43;;;4.93;;
37657;SDS011;23500;53.268;8.308;2022-09-23T01:10:05;5.60;;;5.10;;
37657;SDS011;23500;53.268;8.308;2022-09-23T01:20:23;4.80;;;4.40;;
37657;SDS011;23500;53.268;8.308;2022-09-23T01:29:16;5.57;;;5.07;;
37657;SDS011;23500;53.268;8.308;2022-09-23T01:31:36;5.38;;;4.95;;
37657;SDS011;23500;53.268;8.308;2022-09-23T01:34:21;5.78;;;5.28;;
37657;SDS011;23500;53.268;8.308;2022-09-23T01:37:06;5.43;;;5.03;;
37657;SDS011;23500;53.268;8.308;2022-09-23T01:42:40;5.10;;;4.70;;
37657;SDS011;23500;53.268;8.308;2022-09-23T01:48:01;4.80;;;4.40;;
37657;SDS011;23500;53.268;8.308;2022-09-23T01:50:38;5.57;;;5.07;;
37657;SDS011;23500;53.268;8.308;2022-09-23T01:55:49;4.85;;;4.45;;
37657;SDS011;23500;53.268;8.308;2022-09-23T01:58:25;5.10;;;4.70;;
37657;SDS011;23500;53.268;8.308;2022-09-23T02:01:04;5.20;;;4.80;;
37657;SDS011;23500;53.268;8.308;2022-09-23T02:04:05;5.15;;;4.75;;
37657;SDS011;23500;53.268;8.308;2022-09-23T02:06:31;5.07;;;4.68;;
37657;SDS011;23500;53.268;8.308;2022-09-23T02:09:04;5.07;;;4.63;;
37657;SDS011;23500;53.268;8.308;2022-09-23T02:11:36;5.53;;;5.03;;
37657;SDS011;23500;53.268;8.308;2022-09-23T02:16:35;4.90;;;4.50;;
37657;SDS011;23500;53.268;8.308;2022-09-23T02:19:13;5.20;;;4.80;;
37657;SDS011;23500;53.268;8.308;2022-09-23T02:21:56;4.68;;;4.20;;
37657;SDS011;23500;53.268;8.308;2022-09-23T02:24:33;5.10;;;4.70;;
37657;SDS011;23500;53.268;8.308;2022-09-23T02:35:28;4.65;;;4.25;;
37657;SDS011;23500;53.268;8.308;2022-09-23T02:45:57;4.75;;;4.35;;
37657;SDS011;23500;53.268;8.308;2022-09-23T02:48:44;5.00;;;4.50;;
37657;SDS011;23500;53.268;8.308;2022-09-23T02:51:19;4.57;;;4.18;;
37657;SDS011;23500;53.268;8.308;2022-09-23T02:53:45;4.20;;;3.85;;
37657;SDS011;23500;53.268;8.308;2022-09-23T02:56:13;4.95;;;4.55;;
37657;SDS011;23500;53.268;8.308;2022-09-23T02:58:43;4.45;;;4.05;;
37657;SDS011;23500;53.268;8.308;2022-09-23T03:20:51;4.40;;;4.10;;
37657;SDS011;23500;53.268;8.308;2022-09-23T03:23:36;4.72;;;4.32;;
37657;SDS011;23500;53.268;8.308;2022-09-23T03:26:16;4.55;;;4.15;;
37657;SDS011;23500;53.268;8.308;2022-09-23T03:28:47;4.20;;;3.90;;
37657;SDS011;23500;53.268;8.308;2022-09-23T03:31:14;4.68;;;4.28;;
37657;SDS011;23500;53.268;8.308;2022-09-23T03:33:44;4.70;;;4.30;;
37657;SDS011;23500;53.268;8.308;2022-09-23T03:36:17;4.47;;;4.07;;
37657;SDS011;23500;53.268;8.308;2022-09-23T03:39:10;4.57;;;4.13;;
37657;SDS011;23500;53.268;8.308;2022-09-23T03:41:44;3.90;;;3.60;;
37657;SDS011;23500;53.268;8.308;2022-09-23T03:44:15;4.55;;;4.22;;
37657;SDS011;23500;53.268;8.308;2022-09-23T03:46:42;4.00;;;3.70;;
37657;SDS011;23500;53.268;8.308;2022-09-23T03:49:29;4.28;;;3.97;;
37657;SDS011;23500;53.268;8.308;2022-09-23T03:52:00;4.38;;;3.97;;
37657;SDS011;23500;53.268;8.308;2022-09-23T03:54:26;4.55;;;3.85;;
37657;SDS011;23500;53.268;8.308;2022-09-23T03:56:54;4.60;;;4.20;;
37657;SDS011;23500;53.268;8.308;2022-09-23T03:59:22;4.28;;;3.88;;
37657;SDS011;23500;53.268;8.308;2022-09-23T04:01:48;4.38;;;4.00;;
37657;SDS011;23500;53.268;8.308;2022-09-23T04:04:14;4.50;;;3.88;;
37657;SDS011;23500;53.268;8.308;2022-09-23T04:06:40;4.28;;;3.97;;
37657;SDS011;23500;53.268;8.308;2022-09-23T04:09:06;4.30;;;3.90;;
37657;SDS011;23500;53.268;8.308;2022-09-23T04:11:32;3.97;;;3.67;;
37657;SDS011;23500;53.268;8.308;2022-09-23T04:13:57;3.92;;;3.63;;
37657;SDS011;23500;53.268;8.308;2022-09-23T04:16:23;3.80;;;3.50;;
37657;SDS011;23500;53.268;8.308;2022-09-23T04:18:49;4.43;;;4.03;;
37657;SDS011;23500;53.268;8.308;2022-09-23T04:21:15;4.00;;;3.70;;
37657;SDS011;23500;53.268;8.308;2022-09-23T04:23:41;3.80;;;3.50;;
37657;SDS011;23500;53.268;8.308;2022-09-23T04:26:06;3.90;;;3.60;;
37657;SDS011;23500;53.268;8.308;2022-09-23T04:28:32;4.00;;;3.70;;
37657;SDS011;23500;53.268;8.308;2022-09-23T04:30:58;3.83;;;3.55;;
37657;SDS011;23500;53.268;8.308;2022-09-23T04:33:27;3.78;;;3.47;;
37657;SDS011;23500;53.268;8.308;2022-09-23T04:35:54;4.03;;;3.72;;
37657;SDS011;23500;53.268;8.308;2022-09-23T04:38:20;3.97;;;3.67;;
37657;SDS011;23500;53.268;8.308;2022-09-23T04:40:46;4.00;;;3.70;;
37657;SDS011;23500;53.268;8.308;2022-09-23T04:43:12;3.92;;;3.63;;
37657;SDS011;23500;53.268;8.308;2022-09-23T04:45:40;4.28;;;3.97;;
37657;SDS011;23500;53.268;8.308;2022-09-23T04:48:09;4.07;;;3.67;;
37657;SDS011;23500;53.268;8.308;2022-09-23T04:50:36;4.18;;;3.83;;
37657;SDS011;23500;53.268;8.308;2022-09-23T04:53:03;3.50;;;3.30;;
37657;SDS011;23500;53.268;8.308;2022-09-23T04:55:29;3.60;;;3.28;;
37657;SDS011;23500;53.268;8.308;2022-09-23T04:57:55;3.70;;;3.40;;
37657;SDS011;23500;53.268;8.308;2022-09-23T05:00:21;4.00;;;3.63;;
37657;SDS011;23500;53.268;8.308;2022-09-23T05:02:48;4.13;;;3.83;;
37657;SDS011;23500;53.268;8.308;2022-09-23T05:05:15;3.92;;;3.63;;
37657;SDS011;23500;53.268;8.308;2022-09-23T05:07:46;3.72;;;3.42;;
37657;SDS011;23500;53.268;8.308;2022-09-23T05:10:13;3.53;;;3.33;;
37657;SDS011;23500;53.268;8.308;2022-09-23T05:12:39;4.30;;;3.90;;
37657;SDS011;23500;53.268;8.308;2022-09-23T05:15:05;4.07;;;3.67;;
37657;SDS011;23500;53.268;8.308;2022-09-23T05:17:30;3.60;;;3.30;;
37657;SDS011;23500;53.268;8.308;2022-09-23T05:19:57;4.10;;;3.70;;
37657;SDS011;23500;53.268;8.308;2022-09-23T05:22:23;4.03;;;3.72;;
37657;SDS011;23500;53.268;8.308;2022-09-23T05:24:52;4.15;;;3.75;;
37657;SDS011;23500;53.268;8.308;2022-09-23T05:27:18;3.80;;;3.50;;
37657;SDS011;23500;53.268;8.308;2022-09-23T05:29:45;3.80;;;3.50;;
37657;SDS011;23500;53.268;8.308;2022-09-23T05:32:11;3.80;;;3.30;;
37657;SDS011;23500;53.268;8.308;2022-09-23T05:34:38;3.85;;;3.55;;
37657;SDS011;23500;53.268;8.308;2022-09-23T05:37:04;3.55;;;3.33;;
37657;SDS011;23500;53.268;8.308;2022-09-23T05:39:29;3.58;;;3.28;;
37657;SDS011;23500;53.268;8.308;2022-09-23T05:41:55;3.53;;;3.22;;
37657;SDS011;23500;53.268;8.308;2022-09-23T05:44:21;3.70;;;3.40;;
37657;SDS011;23500;53.268;8.308;2022-09-23T05:46:46;3.40;;;3.20;;
37657;SDS011;23500;53.268;8.308;2022-09-23T05:49:12;3.80;;;3.50;;
37657;SDS011;23500;53.268;8.308;2022-09-23T05:51:38;3.42;;;3.20;;
37657;SDS011;23500;53.268;8.308;2022-09-23T05:54:04;3.30;;;3.10;;
37657;SDS011;23500;53.268;8.308;2022-09-23T05:56:30;3.20;;;3.00;;
37657;SDS011;23500;53.268;8.308;2022-09-23T05:58:58;3.97;;;3.63;;
37657;SDS011;23500;53.268;8.308;2022-09-23T06:01:26;3.58;;;3.28;;
37657;SDS011;23500;53.268;8.308;2022-09-23T06:03:56;3.20;;;3.00;;
37657;SDS011;23500;53.268;8.308;2022-09-23T06:06:23;4.00;;;3.70;;
37657;SDS011;23500;53.268;8.308;2022-09-23T06:08:54;3.40;;;3.10;;
37657;SDS011;23500;53.268;8.308;2022-09-23T06:11:20;3.60;;;3.30;;
37657;SDS011;23500;53.268;8.308;2022-09-23T06:13:46;3.80;;;3.50;;
37657;SDS011;23500;53.268;8.308;2022-09-23T06:16:13;3.58;;;3.28;;
37657;SDS011;23500;53.268;8.308;2022-09-23T06:18:43;3.53;;;3.22;;
37657;SDS011;23500;53.268;8.308;2022-09-23T06:21:14;3.15;;;2.95;;
37657;SDS011;23500;53.268;8.308;2022-09-23T06:23:41;3.60;;;3.30;;
37657;SDS011;23500;53.268;8.308;2022-09-23T06:26:11;3.25;;;3.05;;
37657;SDS011;23500;53.268;8.308;2022-09-23T06:28:38;3.47;;;3.20;;
37657;SDS011;23500;53.268;8.308;2022-09-23T06:31:06;3.67;;;3.33;;
37657;SDS011;23500;53.268;8.308;2022-09-23T06:33:34;3.40;;;3.10;;
37657;SDS011;23500;53.268;8.308;2022-09-23T06:36:01;3.60;;;3.30;;
37657;SDS011;23500;53.268;8.308;2022-09-23T06:38:29;3.03;;;2.83;;
37657;SDS011;23500;53.268;8.308;2022-09-23T06:40:56;3.40;;;3.10;;
37657;SDS011;23500;53.268;8.308;2022-09-23T06:43:23;3.00;;;2.80;;
37657;SDS011;23500;53.268;8.308;2022-09-23T06:45:53;4.47;;;3.20;;
37657;SDS011;23500;53.268;8.308;2022-09-23T06:48:23;3.50;;;3.20;;
37657;SDS011;23500;53.268;8.308;2022-09-23T06:50:50;3.60;;;3.30;;
37657;SDS011;23500;53.268;8.308;2022-09-23T06:53:18;3.10;;;2.90;;
37657;SDS011;23500;53.268;8.308;2022-09-23T06:56:05;3.53;;;3.22;;
37657;SDS011;23500;53.268;8.308;2022-09-23T06:58:32;3.35;;;3.10;;
37657;SDS011;23500;53.268;8.308;2022-09-23T07:01:00;3.80;;;3.30;;
37657;SDS011;23500;53.268;8.308;2022-09-23T07:03:28;3.60;;;3.30;;
37657;SDS011;23500;53.268;8.308;2022-09-23T07:05:55;3.65;;;2.97;;
37657;SDS011;23500;53.268;8.308;2022-09-23T07:08:21;3.63;;;3.10;;
37657;SDS011;23500;53.268;8.308;2022-09-23T07:10:51;3.17;;;2.97;;
37657;SDS011;23500;53.268;8.308;2022-09-23T07:13:21;3.50;;;3.20;;
37657;SDS011;23500;53.268;8.308;2022-09-23T07:15:51;3.13;;;2.90;;
37657;SDS011;23500;53.268;8.308;2022-09-23T07:18:18;4.55;;;3.45;;
37657;SDS011;23500;53.268;8.308;2022-09-23T07:20:47;3.25;;;3.05;;
37657;SDS011;23500;53.268;8.308;2022-09-23T07:23:14;2.88;;;2.67;;
37657;SDS011;23500;53.268;8.308;2022-09-23T07:25:41;3.00;;;2.80;;
37657;SDS011;23500;53.268;8.308;2022-09-23T07:28:08;3.10;;;2.90;;
37657;SDS011;23500;53.268;8.308;2022-09-23T07:30:38;2.75;;;2.55;;
37657;SDS011;23500;53.268;8.308;2022-09-23T07:33:04;3.30;;;2.95;;
37657;SDS011;23500;53.268;8.308;2022-09-23T07:35:31;3.15;;;2.95;;
37657;SDS011;23500;53.268;8.308;2022-09-23T07:37:57;3.55;;;2.80;;
37657;SDS011;23500;53.268;8.308;2022-09-23T07:40:23;2.85;;;2.65;;
37657;SDS011;23500;53.268;8.308;2022-09-23T07:42:49;3.20;;;3.00;;
37657;SDS011;23500;53.268;8.308;2022-09-23T07:45:15;3.22;;;2.92;;
37657;SDS011;23500;53.268;8.308;2022-09-23T07:47:40;2.92;;;2.53;;
37657;SDS011;23500;53.268;8.308;2022-09-23T07:50:07;2.95;;;2.75;;
37657;SDS011;23500;53.268;8.308;2022-09-23T07:52:35;3.55;;;2.80;;
37657;SDS011;23500;53.268;8.308;2022-09-23T07:55:02;3.03;;;2.83;;
37657;SDS011;23500;53.268;8.308;2022-09-23T07:57:28;2.92;;;2.72;;
37657;SDS011;23500;53.268;8.308;2022-09-23T07:59:54;3.08;;;2.53;;
37657;SDS011;23500;53.268;8.308;2022-09-23T08:02:20;4.03;;;2.88;;
37657;SDS011;23500;53.268;8.308;2022-09-23T08:04:45;2.83;;;2.58;;
37657;SDS011;23500;53.268;8.308;2022-09-23T08:07:13;2.85;;;2.55;;
37657;SDS011;23500;53.268;8.308;2022-09-23T08:09:39;3.10;;;2.80;;
37657;SDS011;23500;53.268;8.308;2022-09-23T08:12:07;2.92;;;2.65;;
37657;SDS011;23500;53.268;8.308;2022-09-23T08:14:34;2.80;;;2.60;;
37657;SDS011;23500;53.268;8.308;2022-09-23T08:16:59;2.88;;;2.63;;
37657;SDS011;23500;53.268;8.308;2022-09-23T08:19:25;4.45;;;2.75;;
37657;SDS011;23500;53.268;8.308;2022-09-23T08:21:51;4.70;;;3.20;;
37657;SDS011;23500;53.268;8.308;2022-09-23T08:24:19;3.30;;;2.78;;
37657;SDS011;23500;53.268;8.308;2022-09-23T08:26:47;3.65;;;2.80;;
37657;SDS011;23500;53.268;8.308;2022-09-23T08:29:15;4.95;;;3.05;;
37657;SDS011;23500;53.268;8.308;2022-09-23T08:31:43;6.70;;;3.17;;
37657;SDS011;23500;53.268;8.308;2022-09-23T08:34:09;3.13;;;2.60;;
37657;SDS011;23500;53.268;8.308;2022-09-23T08:36:35;6.55;;;3.13;;
37657;SDS011;23500;53.268;8.308;2022-09-23T08:39:02;5.50;;;3.30;;
37657;SDS011;23500;53.268;8.308;2022-09-23T08:44:07;5.53;;;3.08;;
37657;SDS011;23500;53.268;8.308;2022-09-23T08:46:42;6.72;;;3.20;;
37657;SDS011;23500;53.268;8.308;2022-09-23T08:49:13;7.97;;;3.20;;
37657;SDS011;23500;53.268;8.308;2022-09-23T08:51:46;4.78;;;3.25;;
37657;SDS011;23500;53.268;8.308;2022-09-23T08:54:15;9.43;;;3.33;;
37657;SDS011;23500;53.268;8.308;2022-09-23T08:56:43;6.97;;;3.60;;
37657;SDS011;23500;53.268;8.308;2022-09-23T09:01:51;7.28;;;3.67;;
37657;SDS011;23500;53.268;8.308;2022-09-23T09:04:21;6.97;;;3.38;;
37657;SDS011;23500;53.268;8.308;2022-09-23T09:09:47;9.10;;;3.70;;
37657;SDS011;23500;53.268;8.308;2022-09-23T09:15:49;6.18;;;3.55;;
37657;SDS011;23500;53.268;8.308;2022-09-23T09:18:23;6.15;;;3.88;;
37657;SDS011;23500;53.268;8.308;2022-09-23T09:21:06;6.90;;;3.67;;
37657;SDS011;23500;53.268;8.308;2022-09-23T09:26:28;7.20;;;3.72;;
37657;SDS011;23500;53.268;8.308;2022-09-23T09:29:08;5.10;;;3.45;;
37657;SDS011;23500;53.268;8.308;2022-09-23T09:31:41;7.00;;;3.83;;
37657;SDS011;23500;53.268;8.308;2022-09-23T09:39:33;6.18;;;3.63;;
37657;SDS011;23500;53.268;8.308;2022-09-23T09:42:00;7.60;;;3.65;;
37657;SDS011;23500;53.268;8.308;2022-09-23T09:44:38;7.75;;;3.80;;
37657;SDS011;23500;53.268;8.308;2022-09-23T09:50:04;8.18;;;3.95;;
37657;SDS011;23500;53.268;8.308;2022-09-23T09:52:35;7.47;;;3.30;;
37657;SDS011;23500;53.268;8.308;2022-09-23T10:02:55;5.88;;;3.33;;
37657;SDS011;23500;53.268;8.308;2022-09-23T10:05:26;7.03;;;3.45;;
37657;SDS011;23500;53.268;8.308;2022-09-23T10:07:55;8.77;;;3.50;;
37657;SDS011;23500;53.268;8.308;2022-09-23T10:10:22;6.47;;;3.60;;
37657;SDS011;23500;53.268;8.308;2022-09-23T10:12:49;5.60;;;3.58;;
37657;SDS011;23500;53.268;8.308;2022-09-23T10:15:31;8.10;;;3.45;;
37657;SDS011;23500;53.268;8.308;2022-09-23T10:21:10;4.75;;;3.13;;
37657;SDS011;23500;53.268;8.308;2022-09-23T10:23:45;9.32;;;3.55;;
37657;SDS011;23500;53.268;8.308;2022-09-23T10:26:15;5.38;;;3.63;;
37657;SDS011;23500;53.268;8.308;2022-09-23T10:31:25;6.22;;;3.10;;
37657;SDS011;23500;53.268;8.308;2022-09-23T10:33:55;5.45;;;3.20;;
37657;SDS011;23500;53.268;8.308;2022-09-23T10:36:44;7.47;;;3.75;;
37657;SDS011;23500;53.268;8.308;2022-09-23T10:39:38;5.03;;;3.50;;
37657;SDS011;23500;53.268;8.308;2022-09-23T10:45:25;5.78;;;3.40;;
37657;SDS011;23500;53.268;8.308;2022-09-23T10:54:26;6.15;;;3.45;;
37657;SDS011;23500;53.268;8.308;2022-09-23T11:03:00;5.72;;;3.08;;
37657;SDS011;23500;53.268;8.308;2022-09-23T11:19:54;5.60;;;2.90;;
37657;SDS011;23500;53.268;8.308;2022-09-23T11:25:06;5.57;;;3.55;;
37657;SDS011;23500;53.268;8.308;2022-09-23T11:30:18;5.45;;;3.15;;
37657;SDS011;23500;53.268;8.308;2022-09-23T11:35:26;7.35;;;3.58;;
37657;SDS011;23500;53.268;8.308;2022-09-23T11:38:07;5.28;;;2.80;;
37657;SDS011;23500;53.268;8.308;2022-09-23T11:40:36;4.53;;;3.10;;
37657;SDS011;23500;53.268;8.308;2022-09-23T11:48:41;6.07;;;2.97;;
37657;SDS011;23500;53.268;8.308;2022-09-23T11:54:03;5.05;;;2.85;;
37657;SDS011;23500;53.268;8.308;2022-09-23T11:56:51;4.38;;;2.95;;
37657;SDS011;23500;53.268;8.308;2022-09-23T12:02:09;4.55;;;3.20;;
37657;SDS011;23500;53.268;8.308;2022-09-23T12:04:56;3.72;;;3.10;;
37657;SDS011;23500;53.268;8.308;2022-09-23T12:07:29;7.22;;;3.20;;
37657;SDS011;23500;53.268;8.308;2022-09-23T12:10:19;4.85;;;3.47;;
37657;SDS011;23500;53.268;8.308;2022-09-23T12:24:01;5.10;;;3.08;;
37657;SDS011;23500;53.268;8.308;2022-09-23T12:26:51;4.55;;;2.78;;
37657;SDS011;23500;53.268;8.308;2022-09-23T12:29:21;4.97;;;3.30;;
37657;SDS011;23500;53.268;8.308;2022-09-23T12:31:50;4.43;;;2.80;;
37657;SDS011;23500;53.268;8.308;2022-09-23T12:34:38;4.10;;;2.80;;
37657;SDS011;23500;53.268;8.308;2022-09-23T12:37:08;5.05;;;2.97;;
37657;SDS011;23500;53.268;8.308;2022-09-23T12:39:34;6.30;;;3.17;;
37657;SDS011;23500;53.268;8.308;2022-09-23T12:42:03;4.90;;;2.80;;
37657;SDS011;23500;53.268;8.308;2022-09-23T12:44:44;5.50;;;2.70;;
37657;SDS011;23500;53.268;8.308;2022-09-23T12:49:48;5.00;;;3.00;;
37657;SDS011;23500;53.268;8.308;2022-09-23T12:54:45;4.88;;;2.78;;
37657;SDS011;23500;53.268;8.308;2022-09-23T13:02:56;4.15;;;2.63;;
37657;SDS011;23500;53.268;8.308;2022-09-23T13:05:44;4.38;;;3.10;;
37657;SDS011;23500;53.268;8.308;2022-09-23T13:08:29;4.32;;;3.15;;
37657;SDS011;23500;53.268;8.308;2022-09-23T13:11:00;4.82;;;2.70;;
37657;SDS011;23500;53.268;8.308;2022-09-23T13:16:08;3.67;;;2.97;;
37657;SDS011;23500;53.268;8.308;2022-09-23T13:18:54;3.97;;;2.90;;
37657;SDS011;23500;53.268;8.308;2022-09-23T13:24:16;4.50;;;2.83;;
37657;SDS011;23500;53.268;8.308;2022-09-23T13:26:46;3.53;;;2.55;;
37657;SDS011;23500;53.268;8.308;2022-09-23T13:29:22;3.17;;;2.53;;
37657;SDS011;23500;53.268;8.308;2022-09-23T13:32:01;3.90;;;2.78;;
37657;SDS011;23500;53.268;8.308;2022-09-23T13:34:31;3.78;;;2.40;;
37657;SDS011;23500;53.268;8.308;2022-09-23T13:36:58;3.08;;;2.60;;
37657;SDS011;23500;53.268;8.308;2022-09-23T13:39:45;3.83;;;2.90;;
37657;SDS011;23500;53.268;8.308;2022-09-23T13:42:21;2.72;;;2.53;;
37657;SDS011;23500;53.268;8.308;2022-09-23T13:44:47;3.50;;;2.88;;
37657;SDS011;23500;53.268;8.308;2022-09-23T13:47:13;4.63;;;2.85;;
37657;SDS011;23500;53.268;8.308;2022-09-23T13:49:40;8.23;;;2.78;;
37657;SDS011;23500;53.268;8.308;2022-09-23T13:52:06;3.60;;;2.67;;
37657;SDS011;23500;53.268;8.308;2022-09-23T13:54:52;4.18;;;2.85;;
37657;SDS011;23500;53.268;8.308;2022-09-23T13:57:28;3.20;;;2.78;;
37657;SDS011;23500;53.268;8.308;2022-09-23T13:59:59;3.38;;;2.53;;
37657;SDS011;23500;53.268;8.308;2022-09-23T14:02:26;10.32;;;3.70;;
37657;SDS011;23500;53.268;8.308;2022-09-23T14:04:56;16.30;;;4.57;;
37657;SDS011;23500;53.268;8.308;2022-09-23T14:07:24;13.35;;;4.70;;
37657;SDS011;23500;53.268;8.308;2022-09-23T14:09:51;11.52;;;4.70;;
37657;SDS011;23500;53.268;8.308;2022-09-23T14:12:19;22.20;;;6.60;;
37657;SDS011;23500;53.268;8.308;2022-09-23T14:14:48;23.52;;;7.07;;
37657;SDS011;23500;53.268;8.308;2022-09-23T14:17:19;24.48;;;7.95;;
37657;SDS011;23500;53.268;8.308;2022-09-23T14:19:49;25.80;;;7.88;;
37657;SDS011;23500;53.268;8.308;2022-09-23T14:22:22;27.75;;;8.20;;
37657;SDS011;23500;53.268;8.308;2022-09-23T14:24:50;34.72;;;9.40;;
37657;SDS011;23500;53.268;8.308;2022-09-23T14:27:23;35.22;;;9.15;;
37657;SDS011;23500;53.268;8.308;2022-09-23T14:29:49;33.30;;;9.88;;
37657;SDS011;23500;53.268;8.308;2022-09-23T14:32:16;33.03;;;9.65;;
37657;SDS011;23500;53.268;8.308;2022-09-23T14:40:31;18.02;;;6.53;;
37657;SDS011;23500;53.268;8.308;2022-09-23T14:43:01;18.75;;;6.50;;
37657;SDS011;23500;53.268;8.308;2022-09-23T14:45:34;15.70;;;5.65;;
37657;SDS011;23500;53.268;8.308;2022-09-23T14:50:53;17.10;;;6.28;;
37657;SDS011;23500;53.268;8.308;2022-09-23T14:53:28;24.45;;;6.38;;
37657;SDS011;23500;53.268;8.308;2022-09-23T15:03:48;24.85;;;7.70;;
37657;SDS011;23500;53.268;8.308;2022-09-23T15:06:13;30.75;;;9.15;;
37657;SDS011;23500;53.268;8.308;2022-09-23T15:08:40;32.08;;;10.52;;
37657;SDS011;23500;53.268;8.308;2022-09-23T15:11:09;36.60;;;10.30;;
37657;SDS011;23500;53.268;8.308;2022-09-23T15:13:37;45.40;;;12.82;;
37657;SDS011;23500;53.268;8.308;2022-09-23T15:16:05;37.95;;;11.48;;
37657;SDS011;23500;53.268;8.308;2022-09-23T15:18:38;33.47;;;11.10;;
37657;SDS011;23500;53.268;8.308;2022-09-23T15:21:16;39.75;;;11.18;;
37657;SDS011;23500;53.268;8.308;2022-09-23T15:23:46;33.55;;;10.32;;
37657;SDS011;23500;53.268;8.308;2022-09-23T15:26:19;33.03;;;10.65;;
37657;SDS011;23500;53.268;8.308;2022-09-23T15:28:47;34.80;;;10.55;;
37657;SDS011;23500;53.268;8.308;2022-09-23T15:31:14;32.20;;;10.05;;
37657;SDS011;23500;53.268;8.308;2022-09-23T15:33:47;31.27;;;9.98;;
37657;SDS011;23500;53.268;8.308;2022-09-23T15:36:24;32.05;;;10.23;;
37657;SDS011;23500;53.268;8.308;2022-09-23T15:38:51;29.55;;;9.90;;
37657;SDS011;23500;53.268;8.308;2022-09-23T15:41:20;32.13;;;10.30;;
37657;SDS011;23500;53.268;8.308;2022-09-23T15:43:48;33.20;;;10.32;;
37657;SDS011;23500;53.268;8.308;2022-09-23T15:46:19;30.35;;;9.48;;
37657;SDS011;23500;53.268;8.308;2022-09-23T15:48:57;33.63;;;9.63;;
37657;SDS011;23500;53.268;8.308;2022-09-23T15:51:28;28.50;;;9.82;;
37657;SDS011;23500;53.268;8.308;2022-09-23T15:53:55;25.65;;;9.80;;
37657;SDS011;23500;53.268;8.308;2022-09-23T15:56:21;26.77;;;9.65;;
37657;SDS011;23500;53.268;8.308;2022-09-23T15:58:51;27.42;;;9.70;;
37657;SDS011;23500;53.268;8.308;2022-09-23T16:01:22;23.42;;;8.23;;
37657;SDS011;23500;53.268;8.308;2022-09-23T16:03:54;23.90;;;8.40;;
37657;SDS011;23500;53.268;8.308;2022-09-23T16:06:20;25.67;;;9.02;;
37657;SDS011;23500;53.268;8.308;2022-09-23T16:08:46;24.20;;;9.10;;
37657;SDS011;23500;53.268;8.308;2022-09-23T16:11:20;22.88;;;9.02;;
37657;SDS011;23500;53.268;8.308;2022-09-23T16:13:48;24.30;;;9.43;;
37657;SDS011;23500;53.268;8.308;2022-09-23T16:16:14;21.75;;;8.50;;
37657;SDS011;23500;53.268;8.308;2022-09-23T16:18:41;18.35;;;7.85;;
37657;SDS011;23500;53.268;8.308;2022-09-23T16:21:11;21.65;;;8.25;;
37657;SDS011;23500;53.268;8.308;2022-09-23T16:23:40;21.77;;;8.10;;
37657;SDS011;23500;53.268;8.308;2022-09-23T16:26:12;23.40;;;7.95;;
37657;SDS011;23500;53.268;8.308;2022-09-23T16:28:41;24.85;;;9.40;;
37657;SDS011;23500;53.268;8.308;2022-09-23T16:31:09;23.63;;;10.15;;
37657;SDS011;23500;53.268;8.308;2022-09-23T16:33:40;26.63;;;9.00;;
37657;SDS011;23500;53.268;8.308;2022-09-23T16:36:08;21.13;;;7.95;;
37657;SDS011;23500;53.268;8.308;2022-09-23T16:38:51;21.75;;;8.02;;
37657;SDS011;23500;53.268;8.308;2022-09-23T16:41:21;19.42;;;7.70;;
37657;SDS011;23500;53.268;8.308;2022-09-23T16:43:48;20.15;;;7.80;;
37657;SDS011;23500;53.268;8.308;2022-09-23T16:46:14;18.42;;;7.47;;
37657;SDS011;23500;53.268;8.308;2022-09-23T16:48:41;15.88;;;7.05;;
37657;SDS011;23500;53.268;8.308;2022-09-23T16:51:07;19.80;;;7.15;;
37657;SDS011;23500;53.268;8.308;2022-09-23T16:53:41;17.75;;;7.05;;
37657;SDS011;23500;53.268;8.308;2022-09-23T16:56:08;16.55;;;6.68;;
37657;SDS011;23500;53.268;8.308;2022-09-23T16:58:35;13.52;;;6.88;;
37657;SDS011;23500;53.268;8.308;2022-09-23T17:01:02;17.65;;;6.50;;
37657;SDS011;23500;53.268;8.308;2022-09-23T17:03:47;17.73;;;6.63;;
37657;SDS011;23500;53.268;8.308;2022-09-23T17:06:13;15.25;;;6.30;;
37657;SDS011;23500;53.268;8.308;2022-09-23T17:08:40;13.65;;;6.47;;
37657;SDS011;23500;53.268;8.308;2022-09-23T17:11:06;12.90;;;6.85;;
37657;SDS011;23500;53.268;8.308;2022-09-23T17:13:33;11.52;;;5.65;;
37657;SDS011;23500;53.268;8.308;2022-09-23T17:15:59;16.00;;;6.95;;
37657;SDS011;23500;53.268;8.308;2022-09-23T17:18:25;12.95;;;6.10;;
37657;SDS011;23500;53.268;8.308;2022-09-23T17:21:01;10.95;;;5.75;;
37657;SDS011;23500;53.268;8.308;2022-09-23T17:23:29;10.52;;;5.43;;
37657;SDS011;23500;53.268;8.308;2022-09-23T17:25:56;13.13;;;5.72;;
37657;SDS011;23500;53.268;8.308;2022-09-23T17:28:25;10.38;;;5.20;;
37657;SDS011;23500;53.268;8.308;2022-09-23T17:30:57;9.75;;;4.82;;
37657;SDS011;23500;53.268;8.308;2022-09-23T17:33:25;11.80;;;5.63;;
37657;SDS011;23500;53.268;8.308;2022-09-23T17:35:52;13.95;;;6.32;;
37657;SDS011;23500;53.268;8.308;2022-09-23T17:38:18;11.35;;;4.82;;
37657;SDS011;23500;53.268;8.308;2022-09-23T17:40:52;16.15;;;6.03;;
37657;SDS011;23500;53.268;8.308;2022-09-23T17:43:19;14.70;;;5.93;;
37657;SDS011;23500;53.268;8.308;2022-09-23T17:45:53;10.02;;;5.55;;
37657;SDS011;23500;53.268;8.308;2022-09-23T17:48:21;12.88;;;5.25;;
37657;SDS011;23500;53.268;8.308;2022-09-23T17:50:55;11.55;;;5.38;;
37657;SDS011;23500;53.268;8.308;2022-09-23T17:53:32;12.15;;;5.03;;
37657;SDS011;23500;53.268;8.308;2022-09-23T17:56:01;10.57;;;5.65;;
37657;SDS011;23500;53.268;8.308;2022-09-23T17:58:32;10.63;;;5.32;;
37657;SDS011;23500;53.268;8.308;2022-09-23T18:00:59;10.75;;;5.53;;
37657;SDS011;23500;53.268;8.308;2022-09-23T18:03:26;11.18;;;5.22;;
37657;SDS011;23500;53.268;8.308;2022-09-23T18:05:53;13.02;;;5.18;;
37657;SDS011;23500;53.268;8.308;2022-09-23T18:08:19;11.27;;;5.65;;
37657;SDS011;23500;53.268;8.308;2022-09-23T18:10:45;9.35;;;5.30;;
37657;SDS011;23500;53.268;8.308;2022-09-23T18:13:11;20.65;;;8.93;;
37657;SDS011;23500;53.268;8.308;2022-09-23T18:15:37;18.10;;;8.60;;